createdAt,value
2023-03-18T00:12:10.697Z,12.75
2023-03-18T00:15:02.180Z,7.83
2023-03-18T00:17:37.788Z,9.40
2023-03-18T00:20:14.822Z,9.43
2023-03-18T00:22:50.178Z,7.97
2023-03-18T00:31:44.154Z,8.70
2023-03-18T00:34:46.169Z,10.20
2023-03-18T00:37:43.298Z,7.72
2023-03-18T00:40:51.385Z,9.00
2023-03-18T00:46:39.037Z,10.02
2023-03-18T00:49:16.444Z,10.25
2023-03-18T01:03:16.221Z,11.95
2023-03-18T01:11:44.792Z,8.90
2023-03-18T01:14:40.776Z,8.75
2023-03-18T01:17:37.632Z,6.75
2023-03-18T01:20:18.990Z,8.95
2023-03-18T01:23:11.766Z,9.38
2023-03-18T01:26:27.181Z,9.83
2023-03-18T01:28:59.509Z,11.18
2023-03-18T01:35:06.994Z,12.57
2023-03-18T01:49:44.868Z,10.75
2023-03-18T01:52:42.463Z,9.40
2023-03-18T01:58:27.761Z,8.18
2023-03-18T02:01:03.590Z,9.30
2023-03-18T02:03:37.342Z,9.85
2023-03-18T02:12:20.062Z,10.30
2023-03-18T02:27:27.210Z,8.95
2023-03-18T02:30:32.975Z,20.70
2023-03-18T02:36:08.560Z,21.50
2023-03-18T02:44:24.876Z,14.40
2023-03-18T02:52:44.290Z,14.37
2023-03-18T02:55:16.005Z,15.70
2023-03-18T02:57:59.643Z,17.17
2023-03-18T03:00:30.140Z,17.83
2023-03-18T03:02:58.480Z,15.38
2023-03-18T03:05:50.186Z,13.50
2023-03-18T03:08:38.741Z,13.10
2023-03-18T03:11:40.731Z,10.88
2023-03-18T03:19:40.815Z,12.17
2023-03-18T03:24:56.908Z,12.40
2023-03-18T03:27:42.035Z,13.18
2023-03-18T03:30:32.804Z,12.60
2023-03-18T03:35:47.828Z,12.18
2023-03-18T03:38:24.652Z,13.95
2023-03-18T03:41:11.455Z,12.55
2023-03-18T03:46:27.995Z,18.03
2023-03-18T03:54:28.708Z,14.20
2023-03-18T03:56:57.032Z,16.23
2023-03-18T03:59:24.370Z,14.70
2023-03-18T04:02:11.020Z,15.50
2023-03-18T04:05:04.265Z,13.63
2023-03-18T04:07:32.449Z,14.88
2023-03-18T04:13:04.090Z,13.60
2023-03-18T04:24:28.405Z,15.85
2023-03-18T04:38:29.663Z,14.05
2023-03-18T04:40:57.798Z,15.40
2023-03-18T04:46:13.271Z,14.88
2023-03-18T04:49:00.434Z,14.30
2023-03-18T04:51:27.682Z,14.02
2023-03-18T05:02:04.569Z,14.68
2023-03-18T05:05:05.329Z,14.43
2023-03-18T05:08:07.337Z,13.73
2023-03-18T05:11:01.528Z,15.40
2023-03-18T05:13:30.912Z,13.30
2023-03-18T05:18:48.928Z,15.77
2023-03-18T05:26:55.850Z,14.43
2023-03-18T05:29:38.653Z,15.93
2023-03-18T05:34:54.159Z,16.20
2023-03-18T05:37:40.403Z,15.43
2023-03-18T05:43:14.471Z,16.15
2023-03-18T05:45:44.145Z,12.93
2023-03-18T05:51:04.383Z,14.05
2023-03-18T05:53:54.123Z,15.30
2023-03-18T05:56:38.380Z,18.30
2023-03-18T05:59:11.388Z,16.88
2023-03-18T06:01:42.358Z,15.57
2023-03-18T06:04:13.247Z,13.10
2023-03-18T06:06:44.945Z,13.88
2023-03-18T06:09:17.577Z,15.80
2023-03-18T06:11:49.272Z,16.23
2023-03-18T06:14:41.379Z,13.47
2023-03-18T06:17:09.697Z,14.38
2023-03-18T06:19:44.970Z,16.23
2023-03-18T06:22:26.004Z,14.88
2023-03-18T06:24:56.961Z,12.95
2023-03-18T06:30:26.500Z,13.73
2023-03-18T06:33:14.797Z,15.75
2023-03-18T06:38:54.342Z,13.30
2023-03-18T06:41:33.751Z,13.57
2023-03-18T06:52:09.029Z,13.80
2023-03-18T06:54:38.114Z,16.23
2023-03-18T06:57:14.964Z,14.30
2023-03-18T06:59:43.167Z,14.63
2023-03-18T07:05:27.922Z,13.80
2023-03-18T07:07:55.741Z,15.67
2023-03-18T07:16:24.993Z,16.50
2023-03-18T07:36:00.353Z,16.80
2023-03-18T07:38:27.131Z,13.90
2023-03-18T07:40:53.705Z,21.75
2023-03-18T07:43:20.308Z,17.48
2023-03-18T07:45:46.851Z,14.45
2023-03-18T07:48:14.276Z,15.30
2023-03-18T07:50:41.332Z,14.25
2023-03-18T07:53:07.813Z,18.40
2023-03-18T07:55:35.464Z,17.10
2023-03-18T07:58:02.232Z,16.90
2023-03-18T08:00:29.550Z,17.90
2023-03-18T08:02:56.011Z,17.17
2023-03-18T08:05:22.649Z,19.08
2023-03-18T08:07:49.424Z,17.55
2023-03-18T08:10:16.164Z,20.10
2023-03-18T08:12:52.557Z,19.87
2023-03-18T08:15:31.879Z,19.48
2023-03-18T08:20:57.655Z,19.92
2023-03-18T08:43:07.815Z,17.00
2023-03-18T09:12:21.651Z,12.55
2023-03-18T09:37:38.710Z,12.87
2023-03-18T09:40:07.438Z,13.15
2023-03-18T09:42:45.912Z,12.10
2023-03-18T09:45:23.938Z,11.90
2023-03-18T09:48:27.633Z,14.48
2023-03-18T13:39:08.458Z,6.78
2023-03-18T13:41:50.136Z,5.57
2023-03-18T13:44:54.887Z,7.28
2023-03-18T13:47:19.625Z,8.40
2023-03-18T13:49:50.166Z,7.72
2023-03-18T13:56:02.321Z,5.13
2023-03-18T13:59:09.190Z,5.28
2023-03-18T14:34:58.112Z,4.00
2023-03-18T15:03:08.405Z,4.95
2023-03-18T15:05:38.918Z,3.00
2023-03-18T15:08:17.888Z,3.80
2023-03-18T15:10:49.689Z,3.00
2023-03-18T15:21:42.642Z,3.45
2023-03-18T15:24:11.218Z,4.95
2023-03-18T15:29:33.197Z,2.92
2023-03-18T15:36:20.460Z,4.03
2023-03-18T16:05:54.055Z,2.58
2023-03-18T16:10:41.742Z,2.28
2023-03-18T16:12:08.306Z,3.08
2023-03-18T16:15:32.814Z,3.60
2023-03-18T16:18:10.506Z,2.67
2023-03-18T16:20:51.762Z,2.50
2023-03-18T16:23:24.736Z,2.58
2023-03-18T16:26:10.420Z,2.67
2023-03-18T16:28:44.248Z,2.47
2023-03-18T16:31:12.660Z,2.67
2023-03-18T16:33:39.510Z,1.83
2023-03-18T16:36:10.148Z,2.50
2023-03-18T16:38:36.847Z,2.83
2023-03-18T16:41:03.595Z,3.23
2023-03-18T16:43:32.185Z,3.03
2023-03-18T16:46:01.479Z,3.03
2023-03-18T16:48:28.200Z,3.38
2023-03-18T16:50:56.900Z,2.00
2023-03-18T16:53:27.259Z,2.37
2023-03-18T16:55:57.670Z,3.38
2023-03-18T16:58:31.388Z,2.15
2023-03-18T17:00:58.209Z,1.27
2023-03-18T17:03:24.896Z,2.95
2023-03-18T17:05:52.964Z,2.87
2023-03-18T17:08:21.577Z,1.75
2023-03-18T17:10:51.502Z,3.95
2023-03-18T17:13:23.124Z,2.08
2023-03-18T17:15:51.255Z,3.05
2023-03-18T17:18:21.265Z,1.80
2023-03-18T17:20:49.053Z,3.13
2023-03-18T17:23:17.754Z,2.58
2023-03-18T17:25:57.358Z,1.45
2023-03-18T17:28:32.395Z,1.40
2023-03-18T17:30:59.986Z,3.30
2023-03-18T17:33:31.100Z,3.33
2023-03-18T17:36:00.616Z,3.67
2023-03-18T17:38:28.734Z,3.50
2023-03-18T17:40:55.567Z,4.35
2023-03-18T17:43:33.296Z,3.53
2023-03-18T17:46:01.641Z,4.03
2023-03-18T17:48:30.340Z,4.63
2023-03-18T17:51:00.481Z,3.97
2023-03-18T17:53:32.007Z,3.40
2023-03-18T17:55:59.284Z,2.87
2023-03-18T17:58:28.796Z,3.10
2023-03-18T18:01:02.622Z,3.20
2023-03-18T18:03:31.847Z,4.38
2023-03-18T18:06:00.384Z,3.15
2023-03-18T18:08:29.749Z,3.20
2023-03-18T18:11:18.796Z,5.75
2023-03-18T18:13:47.601Z,4.57
2023-03-18T18:16:14.872Z,4.65
2023-03-18T18:18:41.691Z,4.70
2023-03-18T18:21:15.596Z,4.77
2023-03-18T18:23:44.969Z,3.22
2023-03-18T18:26:16.501Z,5.05
2023-03-18T18:28:48.388Z,3.75
2023-03-18T18:31:20.143Z,3.00
2023-03-18T18:33:50.220Z,4.43
2023-03-18T18:36:18.159Z,5.15
2023-03-18T18:38:45.305Z,4.13
2023-03-18T18:41:11.894Z,6.43
2023-03-18T18:43:39.862Z,4.38
2023-03-18T18:46:12.889Z,4.77
2023-03-18T18:48:39.629Z,4.38
2023-03-18T18:51:06.739Z,5.18
2023-03-18T18:53:36.594Z,5.03
2023-03-18T18:56:14.272Z,4.13
2023-03-18T18:58:43.182Z,6.83
2023-03-18T19:01:13.921Z,6.32
2023-03-18T19:03:41.671Z,4.15
2023-03-18T19:06:30.344Z,3.75
2023-03-18T19:08:59.622Z,4.45
2023-03-18T19:11:27.920Z,5.43
2023-03-18T19:13:55.431Z,3.92
2023-03-18T19:16:31.990Z,4.72
2023-03-18T19:18:59.851Z,6.75
2023-03-18T19:21:29.969Z,4.75
2023-03-18T19:23:58.357Z,5.03
2023-03-18T19:26:25.108Z,5.90
2023-03-18T19:29:01.575Z,5.65
2023-03-18T19:31:30.848Z,6.00
2023-03-18T19:33:59.560Z,5.43
2023-03-18T19:36:30.520Z,6.07
2023-03-18T19:38:59.504Z,7.15
2023-03-18T19:41:29.654Z,4.88
2023-03-18T19:44:13.826Z,5.38
2023-03-18T19:46:43.497Z,7.60
2023-03-18T19:52:17.060Z,7.47
2023-03-18T19:54:44.212Z,8.77
2023-03-18T19:57:20.250Z,7.38
2023-03-18T19:59:48.620Z,3.28
2023-03-18T20:02:26.326Z,3.50
2023-03-18T20:04:55.843Z,4.75
2023-03-18T20:07:25.149Z,3.63
2023-03-18T20:09:53.397Z,9.85
2023-03-18T20:12:25.679Z,5.80
2023-03-18T20:14:52.900Z,2.67
2023-03-18T20:17:23.499Z,2.67
2023-03-18T20:19:51.416Z,2.65
2023-03-18T20:22:24.889Z,2.10
2023-03-18T20:24:52.110Z,2.72
2023-03-18T20:27:18.706Z,3.13
2023-03-18T20:29:46.923Z,2.22
2023-03-18T20:32:13.880Z,3.22
2023-03-18T20:34:41.630Z,2.38
2023-03-18T20:37:21.639Z,0.60
2023-03-18T20:39:49.755Z,2.27
2023-03-18T20:42:22.465Z,1.92
2023-03-18T20:44:48.971Z,1.60
2023-03-18T20:47:15.572Z,1.40
2023-03-18T20:49:45.663Z,0.82
2023-03-18T20:52:26.305Z,0.43
2023-03-18T20:54:53.214Z,0.55
2023-03-18T20:57:19.983Z,0.82
2023-03-18T20:59:47.040Z,1.60
2023-03-18T21:02:29.839Z,1.27
2023-03-18T21:04:58.151Z,0.37
2023-03-18T21:07:25.601Z,0.38
2023-03-18T21:09:52.597Z,0.20
2023-03-18T21:12:20.733Z,1.55
2023-03-18T21:14:48.475Z,1.20
2023-03-18T21:17:21.962Z,1.53
2023-03-18T21:19:49.783Z,0.90
2023-03-18T21:22:21.656Z,1.02
2023-03-18T21:24:49.273Z,0.75
2023-03-18T21:27:20.235Z,0.38
2023-03-18T21:29:49.273Z,0.30
2023-03-18T21:32:32.727Z,0.10
2023-03-18T21:35:00.004Z,0.22
2023-03-18T21:37:27.450Z,0.40
2023-03-18T21:39:54.348Z,0.45
2023-03-18T21:42:37.042Z,0.43
2023-03-18T21:45:38.776Z,0.32
2023-03-18T21:51:07.617Z,0.93
2023-03-18T21:53:46.255Z,0.60
2023-03-18T21:56:34.427Z,0.40
2023-03-18T22:02:25.202Z,0.50
2023-03-18T22:05:07.140Z,0.70
2023-03-18T22:16:22.920Z,0.80
2023-03-18T22:19:12.267Z,0.60
2023-03-18T22:21:56.743Z,1.30
2023-03-18T22:36:09.541Z,1.42
2023-03-18T22:41:33.561Z,0.73
2023-03-18T22:44:12.135Z,1.02
2023-03-18T22:46:42.096Z,1.13
2023-03-18T22:49:16.281Z,1.52
2023-03-18T22:57:21.490Z,0.73
2023-03-18T22:59:53.350Z,1.27
2023-03-18T23:02:30.211Z,2.17
2023-03-18T23:19:34.468Z,1.13
2023-03-18T23:24:53.360Z,1.13
2023-03-18T23:38:53.836Z,3.42
2023-03-18T23:41:21.720Z,3.92
2023-03-18T23:43:53.660Z,2.75
2023-03-18T23:46:52.952Z,1.60
2023-03-18T23:52:30.648Z,13.40
2023-03-18T23:57:47.982Z,15.63
